Itajá Airstrip

BR-0034 · 南马托格罗索州, 巴西

METAR BR-0034 · Itajá Airstrip

26 二月 19:00 LT
1h
使用的METAR站距离机场258 km。
罗盘
风向 的 风向 340° Itajá Airstrip 8/26
风: 4 kt, 2 beaufort


4 kt
改变
0 ft 1.000 2.000 3.000 4.000 5.000
Cloud Cloud
FEW 3.000
Cloud Cloud
FEW 4.000
METAR SBAU 262300Z 34004KT 9999 FEW030 FEW040TCU 26/23 Q1013

METAR Itajá Airstrip - BR-0034

Itajá Airstrip是,巴西中的小机场。 该机场位于纬度-19,06800和经度-51,53000。 该机场有一条跑道: 8/26. 这个机场没有ICAO代码,我们使用BR-0034作为参考。 机场在Curitiba FIR中。

该航空气象观测是针对Araçatuba Airport在2024年2月26日 20:00, 当地时间进行的。

机场观察

风向为340°,速度为4 kt。

可见度为10 km 或者更多。

有几云在3.000 ft的高度 和 几云 高耸的积云在4.000 ft的高度。 没有观察到天花板。

温度和风寒是26 °C。 露点为23 °C,相对湿度为84%。 海平面上的气压为1013 hPa (QNH)。

白天

今天,太阳从05:23升起,在17:54降落。 这适用于Itajá Airstrip,世界夏令时可能有所不同。 当地时间与世界标准时间之间的时差为-4 小时。 当前,没有夏令时有效。

公司介绍

我们没有关于这个机场的公司信息。

体会

到Vliegles.nl去找飞行课程,跳伞和其他飞行体验。 浏览页面,了解Itajá Airstrip附近所有可用的活动。 你也可以使用搜索功能来寻找你所在地附近的特定飞行课程、跳伞或其他飞行体验。

跑道

Id 标题 侧风 逆风 侧风 %
8/26 064°-244° 4 kt 99 %

逆风成分最大的方向会被突出显示,并用于横风计算。 这并不一定意味着这个方向在使用。

乌云

3.000 ft FEW 几云
4.000 ft FEW 几云 高耸的积云

温度 & 天气

温度 26 °C
露点 23 °C
相对湿度 84%
Kp-index 1 (0-9)

白天

日出
05:17 (8:45)
中午
11:34
日落
17:51

小工具

你想在你的网站上有一个关于Itajá Airstrip的当前航空天气(METAR)的小部件吗?

显示HTML代码
?>